Terminal Aerodrome Forecast
Issued by NWS

Home | Current Version | Previous Version | Graphics & Text | Print | Product List | Glossary On
Versions: 1 2 3 4 5 6 7 8 9 10 11 12 13 14 15 16 17 18 19 20 21
000
FTUS42 KMHX 041612 AAD
TAFPGV
TAF AMD
KPGV 041612Z 0416/0512 24010KT 3SM BR OVC003
     FM041800 22015G25KT P6SM SCT250
     FM050100 20010KT 6SM BR SCT005
      AMD LTD TO CLD VIS AND WIND=

USA.gov is the U.S. government's official web portal to all federal, state and local government web resources and services.